Time;durP1;ratioP1;P1;durP2;ratioP2;P2;SDS_P1;SDS_P2;PMS_P1;PMS_P2;Temp;Humidity;BMP_temperature;BMP_pressure;BME280_temperature;BME280_humidity;BME280_pressure;Samples;Min_cycle;Max_cycle;Signal;HPM_P1;HPM_P2
2021/12/14 00:00:32;;;;;;;23.85;13.15;;;;;;;2.54;100.00;100538.79;1731145;82;21348;-83
2021/12/14 00:03:40;;;;;;;33.50;14.05;;;;;;;2.55;100.00;100533.30;1801459;79;21724;-83
2021/12/14 00:06:47;;;;;;;23.12;11.93;;;;;;;2.53;100.00;100527.13;1799892;79;21176;-83
2021/12/14 00:10:02;;;;;;;22.27;10.88;;;;;;;2.48;100.00;100522.59;1792480;79;21300;-83
2021/12/14 00:13:10;;;;;;;22.62;14.73;;;;;;;2.41;100.00;100520.50;1770848;81;21256;-82
2021/12/14 00:16:10;;;;;;;27.60;13.20;;;;;;;2.37;100.00;100516.31;1770727;81;21347;-83
2021/12/14 00:19:15;;;;;;;32.08;23.20;;;;;;;2.36;100.00;100524.05;1770882;81;21252;-83
2021/12/14 00:22:32;;;;;;;37.60;32.15;;;;;;;2.37;100.00;100523.92;1770974;81;21134;-83
2021/12/14 00:25:29;;;;;;;43.23;37.35;;;;;;;2.36;100.00;100534.84;1770903;81;21284;-83
2021/12/14 00:28:38;;;;;;;46.98;38.78;;;;;;;2.35;100.00;100537.15;1770915;81;21328;-83
2021/12/14 00:31:43;;;;;;;24.63;18.25;;;;;;;2.33;100.00;100540.47;1770884;81;21366;-83
2021/12/14 00:34:50;;;;;;;47.78;38.80;;;;;;;2.31;100.00;100531.16;1770978;81;21295;-83
2021/12/14 00:37:58;;;;;;;57.98;46.42;;;;;;;2.33;100.00;100518.37;1770142;81;22118;-83
2021/12/14 00:41:08;;;;;;;89.05;79.15;;;;;;;2.34;100.00;100519.23;1769795;81;21812;-83
2021/12/14 00:44:14;;;;;;;35.65;26.90;;;;;;;2.29;100.00;100516.40;1770048;81;21808;-83
2021/12/14 00:47:20;;;;;;;51.18;40.67;;;;;;;2.27;100.00;100522.42;1768975;81;21587;-83
2021/12/14 00:50:26;;;;;;;40.20;35.28;;;;;;;2.27;100.00;100513.47;1768247;81;21284;-83
2021/12/14 00:53:31;;;;;;;48.45;40.05;;;;;;;2.30;100.00;100522.66;1768423;81;21354;-83
2021/12/14 00:56:37;;;;;;;33.53;28.02;;;;;;;2.36;100.00;100530.30;1769638;81;21848;-83
2021/12/14 00:59:42;;;;;;;55.63;47.25;;;;;;;2.39;100.00;100533.23;1769725;81;21303;-83
2021/12/14 01:02:48;;;;;;;66.00;50.43;;;;;;;2.41;100.00;100529.45;1777651;80;21323;-82
2021/12/14 01:05:56;;;;;;;32.20;20.62;;;;;;;2.44;100.00;100531.90;1777061;80;21237;-82
2021/12/14 01:09:02;;;;;;;26.70;14.95;;;;;;;2.48;100.00;100529.83;1778960;80;21284;-82
2021/12/14 01:12:11;;;;;;;39.80;30.77;;;;;;;2.54;100.00;100526.64;1779009;80;21126;-83
2021/12/14 01:15:29;;;;;;;61.68;51.95;;;;;;;2.54;100.00;100529.34;1779048;80;21857;-83
2021/12/14 01:25:07;;;;;;;56.95;43.38;;;;;;;2.51;100.00;100541.75;1785578;79;21216;-83
2021/12/14 01:28:14;;;;;;;36.38;26.35;;;;;;;2.53;100.00;100533.03;1740663;82;21866;-83
2021/12/14 01:31:28;;;;;;;51.28;40.08;;;;;;;2.55;100.00;100533.30;1740648;82;21350;-83
2021/12/14 01:34:32;;;;;;;49.23;38.87;;;;;;;2.59;100.00;100542.02;1757373;81;21158;-82
2021/12/14 01:37:42;;;;;;;130.82;108.67;;;;;;;2.62;100.00;100547.16;1714297;82;21795;-83
2021/12/14 01:40:53;;;;;;;64.42;53.38;;;;;;;2.58;100.00;100548.38;1718534;82;21863;-83
2021/12/14 01:44:02;;;;;;;30.68;21.80;;;;;;;2.55;100.00;100531.09;1721346;83;21169;-83
2021/12/14 01:47:14;;;;;;;61.77;52.00;;;;;;;2.56;100.00;100516.59;1721476;83;21317;-83
2021/12/14 01:50:46;;;;;;;27.05;16.40;;;;;;;2.54;100.00;100524.83;1721090;83;21276;-83
2021/12/14 01:53:55;;;;;;;22.60;13.62;;;;;;;2.54;100.00;100529.34;1721366;83;21771;-83
2021/12/14 01:57:20;;;;;;;23.85;9.50;;;;;;;2.52;100.00;100513.27;1721180;83;21161;-83
2021/12/14 02:00:33;;;;;;;40.48;33.10;;;;;;;2.57;100.00;100502.11;1721061;83;21172;-83
2021/12/14 02:03:46;;;;;;;48.85;39.27;;;;;;;2.60;100.00;100516.73;1715529;83;21311;-83
2021/12/14 02:06:52;;;;;;;64.10;50.50;;;;;;;2.60;100.00;100515.37;1715655;83;21303;-83
2021/12/14 02:10:02;;;;;;;27.27;19.57;;;;;;;2.58;100.00;100515.11;1724433;82;21607;-83
2021/12/14 02:13:07;;;;;;;33.95;23.20;;;;;;;2.55;100.00;100517.58;1745410;82;21295;-83
2021/12/14 02:16:17;;;;;;;30.77;20.10;;;;;;;2.53;100.00;100512.77;1745252;82;21295;-83
2021/12/14 02:19:24;;;;;;;101.72;90.72;;;;;;;2.50;100.00;100510.34;1690406;85;21406;-83
2021/12/14 02:22:30;;;;;;;63.20;52.08;;;;;;;2.52;100.00;100505.66;1690069;85;21843;-83
2021/12/14 02:25:35;;;;;;;113.97;94.47;;;;;;;2.52;100.00;100505.66;1690107;85;21371;-83
2021/12/14 02:28:40;;;;;;;81.28;68.47;;;;;;;2.47;100.00;100506.52;1718678;83;21354;-83
2021/12/14 02:31:47;;;;;;;33.63;24.15;;;;;;;2.42;100.00;100515.47;1690866;85;21173;-83
2021/12/14 02:35:00;;;;;;;24.43;14.03;;;;;;;2.40;100.00;100515.59;1719746;83;21324;-83
2021/12/14 02:38:11;;;;;;;43.60;29.00;;;;;;;2.40;100.00;100508.84;1690872;85;21331;-83
2021/12/14 02:41:15;;;;;;;29.65;15.88;;;;;;;2.39;100.00;100512.98;1649493;84;21316;-83
2021/12/14 02:44:21;;;;;;;43.20;26.23;;;;;;;2.37;100.00;100506.38;1690919;85;21880;-83
2021/12/14 02:47:27;;;;;;;63.00;46.10;;;;;;;2.40;100.00;100495.80;1690770;85;21369;-83
2021/12/14 02:50:34;;;;;;;55.08;40.63;;;;;;;2.43;100.00;100503.67;1690856;85;21309;-83
2021/12/14 02:53:40;;;;;;;37.88;20.43;;;;;;;2.41;100.00;100502.95;1690970;85;21296;-83
2021/12/14 02:56:46;;;;;;;27.77;13.75;;;;;;;2.35;100.00;100496.16;1691029;85;21313;-83
2021/12/14 02:59:54;;;;;;;20.70;10.10;;;;;;;2.37;100.00;100486.12;1691153;85;21277;-83
2021/12/14 03:03:00;;;;;;;24.45;10.88;;;;;;;2.41;100.00;100480.00;1711654;81;21265;-83
2021/12/14 03:06:07;;;;;;;29.42;13.58;;;;;;;2.41;100.00;100489.45;1771011;81;21839;-83
2021/12/14 03:09:30;;;;;;;31.40;17.87;;;;;;;2.45;100.00;100489.09;1770836;81;21284;-83
2021/12/14 03:12:25;;;;;;;52.50;41.18;;;;;;;2.51;100.00;100495.84;1770565;81;21858;-83
2021/12/14 03:15:34;;;;;;;123.20;104.67;;;;;;;2.47;100.00;100496.57;1770068;81;21298;-83
2021/12/14 03:18:43;;;;;;;104.23;87.20;;;;;;;2.42;100.00;100500.61;1768780;81;21231;-83
2021/12/14 03:21:49;;;;;;;87.27;68.42;;;;;;;2.35;100.00;100494.81;1769830;81;21817;-83
2021/12/14 03:24:55;;;;;;;82.47;49.42;;;;;;;2.28;100.00;100510.64;1783823;79;21255;-83
2021/12/14 03:28:00;;;;;;;68.30;46.28;;;;;;;2.24;100.00;100518.59;1816646;79;21829;-83
2021/12/14 03:31:20;;;;;;;128.40;111.90;;;;;;;2.25;100.00;100523.50;1781478;80;21196;-83
2021/12/14 03:34:32;;;;;;;93.92;71.72;;;;;;;2.25;100.00;100524.36;1750277;82;21342;-83
2021/12/14 03:37:39;;;;;;;126.35;97.97;;;;;;;2.22;100.00;100524.61;1749328;82;21429;-83
2021/12/14 03:40:43;;;;;;;114.80;90.00;;;;;;;2.22;100.00;100540.81;1722251;82;21280;-83
2021/12/14 03:43:53;;;;;;;54.30;39.38;;;;;;;2.22;100.00;100544.86;1770871;81;21173;-83
2021/12/14 03:47:21;;;;;;;137.43;117.17;;;;;;;2.20;100.00;100537.34;1770988;81;21272;-83
2021/12/14 03:50:33;;;;;;;103.47;70.12;;;;;;;2.18;100.00;100537.11;1770560;81;21886;-83
2021/12/14 03:53:37;;;;;;;79.10;60.23;;;;;;;2.18;100.00;100539.31;1770665;81;21327;-83
2021/12/14 03:56:43;;;;;;;104.65;80.97;;;;;;;2.19;100.00;100549.63;1770681;81;21236;-83
2021/12/14 03:59:50;;;;;;;48.13;31.70;;;;;;;2.19;100.00;100557.22;1770585;81;21306;-83
2021/12/14 04:02:57;;;;;;;85.80;62.75;;;;;;;2.23;100.00;100557.37;1770203;81;21133;-83
2021/12/14 04:06:07;;;;;;;124.33;102.40;;;;;;;2.29;100.00;100552.84;1769731;79;21165;-83
2021/12/14 04:09:14;;;;;;;88.37;66.02;;;;;;;2.29;100.00;100554.69;1781051;80;21684;-83
2021/12/14 04:12:23;;;;;;;81.37;69.37;;;;;;;2.28;100.00;100548.42;1781068;80;21271;-83
2021/12/14 04:15:28;;;;;;;73.67;54.98;;;;;;;2.28;100.00;100557.88;1743864;82;21764;-83
2021/12/14 04:18:35;;;;;;;151.22;122.33;;;;;;;2.25;100.00;100558.09;1798053;79;21727;-83
2021/12/14 04:21:44;;;;;;;136.05;92.78;;;;;;;2.22;100.00;100566.45;1796278;79;21296;-83
2021/12/14 04:24:50;;;;;;;94.80;68.30;;;;;;;2.22;100.00;100565.59;1779459;80;21156;-83
2021/12/14 04:27:57;;;;;;;43.45;24.45;;;;;;;2.23;100.00;100556.02;1781008;80;21366;-82
2021/12/14 04:31:01;;;;;;;53.33;33.67;;;;;;;2.29;100.00;100556.89;1800123;79;21290;-83
2021/12/14 04:34:07;;;;;;;51.00;37.48;;;;;;;2.33;100.00;100560.72;1781320;80;21228;-83
2021/12/14 04:37:15;;;;;;;77.40;64.55;;;;;;;2.36;100.00;100565.89;1781319;80;21315;-83
2021/12/14 04:51:52;;;;;;;44.88;33.75;;;;;;;2.32;100.00;100563.05;1781858;79;21262;-83
2021/12/14 04:53:58;;;;;;;48.75;38.42;;;;;;;2.17;100.00;100575.87;1780083;80;21185;-83
2021/12/14 04:57:04;;;;;;;50.30;39.55;;;;;;;2.25;100.00;100584.23;1815461;79;21271;-82
2021/12/14 05:00:31;;;;;;;64.50;43.05;;;;;;;2.30;100.00;100595.05;1745984;82;21966;-83
2021/12/14 05:03:48;;;;;;;28.65;18.82;;;;;;;2.36;100.00;100588.84;1780897;80;21287;-83
2021/12/14 05:06:57;;;;;;;50.15;38.58;;;;;;;2.39;100.00;100596.68;1780846;80;21810;-83
2021/12/14 05:10:01;;;;;;;90.97;78.37;;;;;;;2.41;100.00;100589.34;1779371;80;21196;-83
2021/12/14 05:13:07;;;;;;;54.50;36.88;;;;;;;2.40;100.00;100588.95;1781011;80;21216;-83
2021/12/14 05:16:13;;;;;;;55.60;42.27;;;;;;;2.43;100.00;100592.77;1780675;80;21973;-83
2021/12/14 05:19:19;;;;;;;37.67;25.77;;;;;;;2.45;100.00;100590.84;1780450;79;21326;-83
2021/12/14 05:22:32;;;;;;;55.78;48.45;;;;;;;2.49;100.00;100589.59;1810545;79;21215;-83
2021/12/14 05:25:41;;;;;;;40.20;18.80;;;;;;;2.48;100.00;100585.17;1725858;82;21301;-83
2021/12/14 05:28:52;;;;;;;26.27;10.68;;;;;;;2.45;100.00;100580.03;1799528;79;21275;-83
2021/12/14 05:31:57;;;;;;;28.75;11.15;;;;;;;2.43;100.00;100577.92;1758769;80;21181;-83
2021/12/14 05:35:03;;;;;;;25.97;11.73;;;;;;;2.45;100.00;100580.03;1736899;82;21202;-83
2021/12/14 05:38:10;;;;;;;24.02;11.90;;;;;;;2.47;100.00;100569.96;1780961;79;21193;-83
2021/12/14 05:44:44;;;;;;;27.75;17.92;;;;;;;2.59;100.00;100573.08;1738166;82;21582;-83
2021/12/14 05:47:57;;;;;;;25.60;15.98;;;;;;;2.64;100.00;100568.18;1779795;79;21176;-83
2021/12/14 05:51:13;;;;;;;38.02;26.70;;;;;;;2.69;100.00;100574.58;1718698;82;21287;-83
2021/12/14 05:54:29;;;;;;;55.15;47.23;;;;;;;2.73;100.00;100573.33;1782907;79;21149;-83
2021/12/14 05:57:34;;;;;;;44.05;33.15;;;;;;;2.73;100.00;100582.78;1769841;79;21156;-83
2021/12/14 06:00:43;;;;;;;23.83;12.40;;;;;;;2.69;100.00;100571.38;1783852;79;21251;-82
2021/12/14 06:04:00;;;;;;;34.80;23.85;;;;;;;2.64;100.00;100585.73;1782025;78;21338;-86
2021/12/14 06:07:05;;;;;;;62.05;53.08;;;;;;;2.63;100.00;100586.69;1782895;79;21181;-82
2021/12/14 06:10:12;;;;;;;45.35;32.73;;;;;;;2.60;100.00;100584.73;1777304;79;21236;-82
2021/12/14 06:13:22;;;;;;;94.72;66.15;;;;;;;2.58;100.00;100604.23;1784325;79;21164;-82
2021/12/14 06:16:40;;;;;;;;;;;;;;;2.60;100.00;100607.70;1781788;79;21311;-80
2021/12/14 06:19:50;;;;;;;79.77;58.10;;;;;;;2.62;100.00;100618.73;1775589;79;20299;-81
2021/12/14 06:22:59;;;;;;;24.27;12.98;;;;;;;2.57;100.00;100603.37;1781252;79;21291;-80
2021/12/14 06:26:19;;;;;;;22.65;11.80;;;;;;;2.54;100.00;100590.09;1741688;79;21179;-87
2021/12/14 06:29:32;;;;;;;33.33;19.87;;;;;;;2.54;100.00;100586.94;1776141;79;21309;-80
2021/12/14 06:32:46;;;;;;;53.40;39.58;;;;;;;2.63;100.00;100592.58;1775267;79;21168;-82
2021/12/14 06:35:59;;;;;;;65.87;55.35;;;;;;;2.67;100.00;100590.88;1775675;79;21250;-80
2021/12/14 06:39:13;;;;;;;24.47;14.15;;;;;;;2.62;100.00;100597.63;1778678;79;21874;-84
2021/12/14 06:42:22;;;;;;;22.65;14.40;;;;;;;2.58;100.00;100596.98;1778671;79;21298;-82
2021/12/14 06:45:36;;;;;;;29.75;14.00;;;;;;;2.63;100.00;100596.14;1779937;79;21718;-81
2021/12/14 06:48:58;;;;;;;22.95;11.75;;;;;;;2.64;100.00;100601.94;1779037;79;21349;-81
2021/12/14 06:52:05;;;;;;;48.87;32.85;;;;;;;2.70;100.00;100610.91;1777890;79;21245;-81
2021/12/14 06:55:14;;;;;;;31.07;12.03;;;;;;;2.80;100.00;100615.11;1779302;79;21428;-85
2021/12/14 06:58:32;;;;;;;28.73;18.92;;;;;;;2.84;100.00;100623.34;1691774;81;21244;-85
2021/12/14 07:01:49;;;;;;;25.68;12.50;;;;;;;2.85;100.00;100626.91;1714600;81;21261;-81
2021/12/14 07:04:56;;;;;;;19.32;9.95;;;;;;;2.88;100.00;100623.98;1714019;81;21314;-81
2021/12/14 07:08:05;;;;;;;23.25;13.62;;;;;;;2.94;100.00;100614.03;1723693;81;21175;-82
2021/12/14 07:11:12;;;;;;;33.23;20.10;;;;;;;2.94;100.00;100624.84;1714288;82;21235;-82
2021/12/14 07:18:23;;;;;;;26.93;13.95;;;;;;;2.96;100.00;100625.08;1728097;80;21202;-82
2021/12/14 07:21:49;;;;;;;19.05;10.65;;;;;;;2.93;100.00;100624.48;1700958;82;21309;-83
2021/12/14 07:24:55;;;;;;;28.85;12.37;;;;;;;2.93;100.00;100623.98;1722976;81;22368;-82
2021/12/14 07:28:18;;;;;;;25.43;11.22;;;;;;;2.93;100.00;100631.23;1682093;81;21243;-82
2021/12/14 07:31:29;;;;;;;16.87;9.30;;;;;;;2.95;100.00;100627.91;1721798;81;21227;-82
2021/12/14 07:34:35;;;;;;;23.87;11.50;;;;;;;2.99;100.00;100630.75;1715280;81;21224;-83
2021/12/14 07:37:42;;;;;;;21.95;11.60;;;;;;;2.96;100.00;100629.63;1724708;81;21218;-83
2021/12/14 07:40:49;;;;;;;32.30;18.40;;;;;;;2.99;100.00;100638.36;1724445;81;21160;-83
2021/12/14 07:44:16;;;;;;;41.85;28.57;;;;;;;3.01;100.00;100646.34;1700433;81;21204;-85
2021/12/14 07:47:28;;;;;;;21.52;12.43;;;;;;;3.01;100.00;100654.45;1706384;81;21187;-83
2021/12/14 07:51:01;;;;;;;29.80;11.93;;;;;;;2.99;100.00;100657.77;1706650;81;21163;-82
2021/12/14 07:54:22;;;;;;;27.48;11.78;;;;;;;2.98;100.00;100643.89;1727604;81;21176;-82
2021/12/14 07:57:39;;;;;;;26.50;13.25;;;;;;;3.00;100.00;100636.52;1701354;81;21192;-82
2021/12/14 08:00:45;;;;;;;24.95;12.03;;;;;;;2.98;100.00;100642.05;1692480;81;21227;-83
2021/12/14 08:03:52;;;;;;;29.00;11.08;;;;;;;3.00;100.00;100650.03;1707935;81;21570;-83
2021/12/14 08:07:02;;;;;;;31.62;10.70;;;;;;;3.08;100.00;100644.89;1682230;81;21752;-83
2021/12/14 08:10:32;;;;;;;25.37;11.65;;;;;;;3.18;100.00;100647.73;1714864;82;21188;-82
2021/12/14 08:13:37;;;;;;;20.08;10.70;;;;;;;3.21;100.00;100640.75;1715887;82;21270;-83
2021/12/14 08:17:03;;;;;;;25.97;12.23;;;;;;;3.21;100.00;100632.63;1718567;82;21507;-83
2021/12/14 08:20:08;;;;;;;24.20;11.48;;;;;;;3.18;100.00;100627.45;1716580;82;22104;-84
2021/12/14 08:23:25;;;;;;;23.07;10.95;;;;;;;3.12;100.00;100626.11;1715077;82;21299;-82
2021/12/14 08:26:50;;;;;;;22.62;11.53;;;;;;;3.12;100.00;100632.86;1714991;82;21677;-83
2021/12/14 08:30:06;;;;;;;24.32;10.70;;;;;;;3.12;100.00;100627.45;1713243;82;21157;-83
2021/12/14 08:33:28;;;;;;;18.98;11.65;;;;;;;3.12;100.00;100624.75;1711393;82;21195;-82
2021/12/14 08:36:53;;;;;;;21.75;11.08;;;;;;;3.05;100.00;100622.15;1699541;82;21153;-82
2021/12/14 08:40:21;;;;;;;23.20;12.13;;;;;;;3.02;100.00;100602.14;1713899;82;21243;-82
2021/12/14 08:43:36;;;;;;;20.45;11.05;;;;;;;3.08;100.00;100596.24;1690567;82;21199;-83
2021/12/14 08:46:41;;;;;;;30.45;13.50;;;;;;;3.11;100.00;100573.03;1714990;82;21295;-83
2021/12/14 08:49:48;;;;;;;24.45;12.00;;;;;;;3.17;100.00;100578.44;1712529;82;21285;-84
2021/12/14 08:52:53;;;;;;;23.55;11.15;;;;;;;3.25;100.00;100584.96;1712252;82;21189;-85
2021/12/14 08:56:00;;;;;;;21.27;9.75;;;;;;;3.31;100.00;100597.98;1714417;82;21156;-84
2021/12/14 08:59:06;;;;;;;26.05;12.05;;;;;;;3.33;100.00;100600.55;1712963;82;21211;-85
2021/12/14 09:02:17;;;;;;;25.70;16.15;;;;;;;3.25;100.00;100596.27;1712911;82;21182;-83
2021/12/14 09:05:34;;;;;;;21.75;11.38;;;;;;;3.24;100.00;100588.63;1715468;82;21631;-82
2021/12/14 09:08:42;;;;;;;27.73;12.25;;;;;;;3.25;100.00;100587.66;1710857;82;21241;-86
2021/12/14 09:12:02;;;;;;;24.35;12.00;;;;;;;3.24;100.00;100602.14;1710863;82;21216;-84
2021/12/14 09:15:27;;;;;;;21.25;11.15;;;;;;;3.24;100.00;100592.67;1713179;82;21429;-82
2021/12/14 09:18:30;;;;;;;22.50;10.30;;;;;;;3.30;100.00;100591.35;1713502;82;21250;-83
2021/12/14 09:21:42;;;;;;;20.35;10.95;;;;;;;3.25;100.00;100579.55;1709607;82;21211;-83
2021/12/14 09:24:49;;;;;;;30.50;11.93;;;;;;;3.25;100.00;100572.80;1707957;82;21220;-83
2021/12/14 09:27:54;;;;;;;24.65;11.75;;;;;;;3.24;100.00;100581.86;1712933;82;22391;-84
2021/12/14 09:31:03;;;;;;;21.95;11.68;;;;;;;3.24;100.00;100587.77;1712686;82;21188;-83
2021/12/14 09:34:09;;;;;;;23.42;10.93;;;;;;;3.22;100.00;100578.44;1770873;79;21221;-83
2021/12/14 09:37:15;;;;;;;21.95;10.98;;;;;;;3.21;100.00;100571.81;1766017;79;21346;-83
2021/12/14 09:40:33;;;;;;;24.80;11.95;;;;;;;3.20;100.00;100574.12;1768688;79;21197;-83
2021/12/14 09:43:38;;;;;;;22.93;12.07;;;;;;;3.19;100.00;100570.56;1771658;79;21844;-83
2021/12/14 09:46:43;;;;;;;18.20;10.08;;;;;;;3.17;100.00;100569.83;1771348;79;21270;-82
2021/12/14 09:49:49;;;;;;;20.00;10.70;;;;;;;3.18;100.00;100575.60;1765444;79;21239;-83
2021/12/14 09:52:55;;;;;;;17.05;9.38;;;;;;;3.19;100.00;100567.86;1761981;79;21181;-82
2021/12/14 09:56:02;;;;;;;24.85;11.40;;;;;;;3.26;100.00;100570.95;1767258;79;21877;-83
2021/12/14 09:59:07;;;;;;;19.95;10.25;;;;;;;3.28;100.00;100573.88;1769139;79;21252;-83
2021/12/14 10:02:32;;;;;;;23.20;11.00;;;;;;;3.32;100.00;100570.44;1773960;79;21226;-83
2021/12/14 10:05:47;;;;;;;22.70;11.97;;;;;;;3.35;100.00;100562.09;1770120;79;21159;-83
2021/12/14 10:08:59;;;;;;;21.07;10.85;;;;;;;3.35;100.00;100572.91;1769808;79;21227;-82
2021/12/14 10:13:13;;;;;;;21.70;10.98;;;;;;;3.31;100.00;100564.67;1713499;82;21264;-84
2021/12/14 10:15:49;;;;;;;30.12;11.65;;;;;;;3.25;100.00;100567.88;1761976;79;21538;-83
2021/12/14 10:19:06;;;;;;;24.15;11.75;;;;;;;3.22;100.00;100573.03;1751358;79;21169;-85
2021/12/14 10:22:28;;;;;;;23.67;12.58;;;;;;;3.20;100.00;100574.12;1665577;82;21256;-84
2021/12/14 10:25:33;;;;;;;27.98;11.48;;;;;;;3.12;100.00;100573.40;1712183;82;21447;-84
2021/12/14 10:28:45;;;;;;;25.75;13.70;;;;;;;3.05;100.00;100568.09;1707964;82;21969;-84
2021/12/14 10:32:03;;;;;;;32.25;12.68;;;;;;;2.97;100.00;100562.47;1770461;79;21282;-82
2021/12/14 10:35:17;;;;;;;27.58;14.15;;;;;;;2.91;100.00;100569.68;1718596;81;21188;-81
2021/12/14 10:38:30;;;;;;;25.52;12.37;;;;;;;2.93;100.00;100569.94;1717638;82;21220;-81
2021/12/14 10:44:58;;;;;;;30.48;12.82;;;;;;;2.99;100.00;100552.37;1769789;79;21173;-82
2021/12/14 10:48:03;;;;;;;26.60;14.18;;;;;;;2.95;100.00;100546.84;1768705;79;21224;-82
2021/12/14 10:51:11;;;;;;;23.35;12.63;;;;;;;2.93;100.00;100547.47;1768216;79;21172;-82
2021/12/14 10:54:17;;;;;;;24.90;13.45;;;;;;;2.88;100.00;100550.53;1771250;79;21208;-82
2021/12/14 10:57:30;;;;;;;24.87;12.65;;;;;;;2.82;100.00;100546.94;1772010;79;21358;-82
2021/12/14 11:00:41;;;;;;;27.25;14.03;;;;;;;2.82;100.00;100549.64;1772962;79;21204;-83
2021/12/14 11:03:56;;;;;;;26.20;13.48;;;;;;;2.81;100.00;100544.73;1768535;79;21913;-82
2021/12/14 11:07:02;;;;;;;35.68;15.20;;;;;;;2.80;100.00;100544.38;1769835;79;21306;-82
2021/12/14 11:10:25;;;;;;;30.72;16.23;;;;;;;2.84;100.00;100561.70;1772733;79;21318;-82
2021/12/14 11:13:30;;;;;;;32.45;17.45;;;;;;;2.80;100.00;100568.69;1768778;79;21350;-82
2021/12/14 11:20:14;;;;;;;33.88;17.27;;;;;;;2.80;100.00;100547.08;1768453;79;21196;-82
2021/12/14 11:23:45;;;;;;;33.75;19.02;;;;;;;2.83;100.00;100560.84;1711328;81;21338;-83
2021/12/14 11:26:54;;;;;;;34.60;20.17;;;;;;;2.85;100.00;100583.19;1768877;79;21297;-82
2021/12/14 11:30:34;;;;;;;31.12;19.82;;;;;;;2.91;100.00;100586.75;1737798;80;21287;-82
2021/12/14 11:33:51;;;;;;;34.10;19.07;;;;;;;2.93;100.00;100582.59;1759213;79;21898;-82
2021/12/14 11:37:08;;;;;;;28.47;18.10;;;;;;;2.92;100.00;100601.15;1770468;79;21887;-82
2021/12/14 11:40:19;;;;;;;38.15;21.05;;;;;;;2.94;100.00;100595.98;1771634;79;21397;-82
2021/12/14 11:43:31;;;;;;;42.27;24.12;;;;;;;2.95;100.00;100590.08;1765235;79;21197;-82
2021/12/14 11:46:37;;;;;;;41.33;25.80;;;;;;;2.94;100.00;100578.41;1716146;82;21610;-82
2021/12/14 11:49:56;;;;;;;46.10;25.20;;;;;;;2.92;100.00;100574.98;1769715;79;21161;-82
2021/12/14 11:53:11;;;;;;;38.40;24.07;;;;;;;2.95;100.00;100581.97;1771038;79;21298;-82
2021/12/14 11:56:21;;;;;;;;;;;;;;;3.00;100.00;100591.92;1715436;82;21196;-83
2021/12/14 11:59:27;;;;;;;45.83;25.08;;;;;;;2.95;100.00;100596.34;1739607;80;20611;-83
2021/12/14 12:02:34;;;;;;;41.30;24.77;;;;;;;2.84;100.00;100590.93;1769247;79;21341;-83
2021/12/14 12:05:47;;;;;;;37.60;22.10;;;;;;;2.81;100.00;100580.35;1769255;79;21616;-82
2021/12/14 12:12:34;;;;;;;36.83;20.77;;;;;;;2.70;100.00;100571.75;1722990;81;21629;-82
2021/12/14 12:15:37;;;;;;;47.35;23.10;;;;;;;2.69;100.00;100590.78;1776673;78;21156;-82
2021/12/14 12:18:32;;;;;;;39.67;22.35;;;;;;;2.64;100.00;100594.33;1760591;79;21182;-82
2021/12/14 12:21:38;;;;;;;42.65;21.20;;;;;;;2.68;100.00;100589.03;1774762;78;21190;-83
2021/12/14 12:24:52;;;;;;;33.55;21.77;;;;;;;2.72;100.00;100575.17;1778542;78;21163;-82
2021/12/14 12:28:05;;;;;;;45.40;23.65;;;;;;;2.72;100.00;100564.86;1780964;78;21779;-82
2021/12/14 12:31:24;;;;;;;41.45;24.30;;;;;;;2.71;100.00;100551.84;1780052;79;21168;-83
2021/12/14 12:34:29;;;;;;;48.60;24.15;;;;;;;2.65;100.00;100546.94;1779762;79;21176;-83
2021/12/14 12:37:46;;;;;;;44.63;23.18;;;;;;;2.62;100.00;100563.37;1782224;79;21188;-82
2021/12/14 12:40:56;;;;;;;41.58;22.93;;;;;;;2.60;100.00;100586.09;1780422;78;21149;-83
2021/12/14 12:44:18;;;;;;;36.53;21.20;;;;;;;2.59;100.00;100585.23;1779897;78;21191;-82
2021/12/14 12:47:27;;;;;;;36.60;21.37;;;;;;;2.61;100.00;100595.91;1778286;78;21263;-82
2021/12/14 12:50:33;;;;;;;37.35;20.20;;;;;;;2.64;100.00;100598.38;1779076;79;21306;-82
2021/12/14 12:53:38;;;;;;;34.92;19.98;;;;;;;2.70;100.00;100604.16;1787430;79;21267;-82
2021/12/14 12:56:43;;;;;;;32.10;18.27;;;;;;;2.75;100.00;100610.06;1747745;80;21145;-81
2021/12/14 13:00:15;;;;;;;36.33;19.98;;;;;;;2.79;100.00;100608.84;1785202;79;21255;-81
2021/12/14 13:03:32;;;;;;;39.55;21.62;;;;;;;2.83;100.00;100607.27;1733404;82;21303;-81
2021/12/14 13:06:39;;;;;;;37.78;20.32;;;;;;;2.84;100.00;100601.73;1780221;79;21270;-81
2021/12/14 13:10:13;;;;;;;37.50;23.05;;;;;;;2.79;100.00;100594.48;1782719;79;21204;-81
2021/12/14 13:13:36;;;;;;;39.63;21.10;;;;;;;2.76;100.00;100596.92;1778235;78;21168;-81
2021/12/14 13:16:50;;;;;;;37.67;21.27;;;;;;;2.70;100.00;100593.36;1765970;80;21283;-80
2021/12/14 13:19:58;;;;;;;39.55;21.48;;;;;;;2.67;100.00;100582.77;1771246;80;21196;-83
2021/12/14 13:23:04;;;;;;;38.20;21.50;;;;;;;2.66;100.00;100579.71;1709707;82;21268;-81
2021/12/14 13:26:09;;;;;;;37.15;20.65;;;;;;;2.66;100.00;100577.02;1721297;82;21161;-82
2021/12/14 13:29:23;;;;;;;44.05;23.70;;;;;;;2.65;100.00;100580.70;1704693;82;21270;-80
2021/12/14 13:32:42;;;;;;;36.75;20.32;;;;;;;2.63;100.00;100583.13;1725217;82;21298;-82
2021/12/14 13:35:47;;;;;;;45.28;22.37;;;;;;;2.63;100.00;100582.64;1723617;82;21318;-82
2021/12/14 13:38:52;;;;;;;36.23;19.65;;;;;;;2.63;100.00;100587.18;1697152;83;22199;-82
2021/12/14 13:42:13;;;;;;;36.60;20.37;;;;;;;2.61;100.00;100591.86;1704203;83;21360;-83
2021/12/14 13:45:30;;;;;;;33.78;19.60;;;;;;;2.56;100.00;100590.86;1691730;84;22277;-82
2021/12/14 13:48:46;;;;;;;34.38;19.75;;;;;;;2.52;100.00;100597.47;1703412;83;21241;-82
2021/12/14 13:51:51;;;;;;;33.48;18.90;;;;;;;2.51;100.00;100593.05;1717930;82;21264;-82
2021/12/14 13:55:18;;;;;;;35.73;18.65;;;;;;;2.51;100.00;100580.41;1719379;82;21302;-82
2021/12/14 13:58:28;;;;;;;32.48;18.23;;;;;;;2.48;99.92;100590.09;1721833;82;21259;-82
2021/12/14 14:01:46;;;;;;;39.80;20.88;;;;;;;2.46;99.85;100584.45;1701243;83;21759;-82
2021/12/14 14:04:52;;;;;;;37.20;19.25;;;;;;;2.46;99.71;100579.05;1720701;82;21291;-82
2021/12/14 14:08:01;;;;;;;34.23;17.55;;;;;;;2.43;99.41;100569.83;1710552;82;21316;-82
2021/12/14 14:11:06;;;;;;;30.15;17.40;;;;;;;2.41;99.29;100569.09;1725130;82;21165;-81
2021/12/14 14:14:19;;;;;;;28.62;17.17;;;;;;;2.34;98.67;100566.48;1723607;82;21283;-82
2021/12/14 14:17:33;;;;;;;32.78;18.32;;;;;;;2.30;98.99;100561.30;1719790;82;21276;-82
2021/12/14 14:20:47;;;;;;;36.05;18.90;;;;;;;2.30;98.82;100566.70;1722895;82;21299;-82
2021/12/14 14:23:56;;;;;;;32.80;18.70;;;;;;;2.24;98.29;100573.92;1717913;82;22150;-81
2021/12/14 14:27:01;;;;;;;36.65;18.65;;;;;;;2.17;98.30;100571.83;1723379;82;21264;-82
2021/12/14 14:30:08;;;;;;;30.27;17.80;;;;;;;2.13;98.65;100575.23;1719958;82;21646;-83
2021/12/14 14:33:26;;;;;;;25.52;15.78;;;;;;;2.12;98.87;100576.69;1773416;79;21549;-82
2021/12/14 14:36:38;;;;;;;30.90;17.70;;;;;;;2.13;98.66;100590.09;1783208;79;21284;-82
2021/12/14 14:39:58;;;;;;;29.30;17.10;;;;;;;2.10;98.27;100580.86;1781956;79;21126;-82
2021/12/14 14:43:07;;;;;;;27.07;17.15;;;;;;;2.11;98.35;100585.27;1785765;79;21573;-82
2021/12/14 14:46:10;;;;;;;36.83;19.62;;;;;;;2.13;98.51;100594.62;1772507;79;21315;-81
2021/12/14 14:49:29;;;;;;;32.73;17.60;;;;;;;2.12;98.34;100604.56;1776730;79;21772;-82
2021/12/14 14:52:44;;;;;;;27.17;15.95;;;;;;;2.11;98.54;100600.11;1770271;79;21205;-82
2021/12/14 14:55:58;;;;;;;24.05;14.90;;;;;;;2.13;98.51;100602.23;1798865;79;21769;-82
2021/12/14 14:59:07;;;;;;;25.08;14.68;;;;;;;2.11;98.26;100593.37;1770330;81;21869;-82
2021/12/14 15:02:13;;;;;;;23.77;15.00;;;;;;;2.04;98.07;100583.53;1787760;79;21255;-82